Perth Amboy, NJ

9:51 PM EDT en Octubre 25, 2014 (GMT -0400)
Main St and Amboy Ave | Change Station
CLOSE
Current Station
Estación meteorológica personal
Location: Woodbridge, NJ
Altura: 43 ft
Estaciones meteorológicas cercanas

Alt 43 ft 40.55 °N, 74.28 °W | Updated 1 second ago

Parcialmente nublado
Parcialmente nublado
58.6 ° F
Sensación térmica 58.6 ° F
N
0.0
Viento Variable Viento desde SO
Gusts 2.0 mph

Hoy
Alta -- | Baja -- ° F
--% Posibilidad de precipitaciones
Ayer
Alta -- | Baja -- ° F
Precip. -- pul
7:19 AM 6:02 PM
Creciente, 5% visible
Presión 29.64 pul
Visibilidad 10.0 Millas
Nubes Despejado
Punto de rocío 46 ° F
Humedad 63%
Precipitaciones 0.00 pul
Espesor de la nieve No disponible.
UV 0 de una escala de 12
Polen 1.40 de una escala de 12
Calidad del aire No disponible.
Flu Activity Sporadic
METAR KLDJ 260135Z AUTO 24004KT 10SM CLR 18/09 A2964 RMK AO2 T01810085

More Conditions Fewer Conditions

Presión 29.64 pul
Visibilidad 10.0 Millas
Nubes Despejado
Punto de rocío 46 ° F
Humedad 63%
Precipitaciones 0.00 pul
Espesor de la nieve No disponible.
UV 0 de una escala de 12
Polen 1.40 de una escala de 12
Calidad del aire No disponible.
Flu Activity Sporadic
METAR KLDJ 260135Z AUTO 24004KT 10SM CLR 18/09 A2964 RMK AO2 T01810085

More Conditions Fewer Conditions

10-Day Weather Forecast

Almanac

Astronomía

Oct. 25, 2014 Salida Puesta
Hora real 7:19 AM EDT 6:02 PM EDT
Crepúsculo civil 6:51 AM EDT 6:30 PM EDT
Crepúsculo náutico 6:19 AM EDT 7:02 PM EDT
Crepúsculo astronómico 5:47 AM EDT 7:34 PM EDT
Luna 8:55 AM EDT (10/25) 7:23 PM EDT (10/25)
Horas de luz 11h 39m
Horas de luz
10h 43m
Tomorrow will be 2m 28s shorter.
Creciente, 5% of the Moon is Illuminated
Hoy
Creciente
Oct 30
Cuarto creciente
Nov 6
Luna llena
Nov 14
Cuarto menguante
Nov 22
Nueva

Extremos de hoy

Máximos del estado Bajos del estado

Community

WunderPhotos

Upload Photos

1,765,071 ¡fotos cargadas!

Nearby

Grosos de nieve

Estación Profundido Altura
No tenemos constancia de nieve nueva.

Actividad de terremotos

Ciudad Distance Mag. Tiempo y dato
No hay informes recientes de la actividad sísmica.
Magnitud mínima muestra es 2,5.

Temperaturas de aguas costeras

Lugar Temperatura
Sandy Hook, NJ 57.9 ° F
The Battery, NY 61.0 ° F
Bergen Point West Reach, NJ 61.0 ° F

Estaciones meteorológicas cercanas